sensor_id;sensor_type;location;lat;lon;timestamp;temperature;humidity
35559;DHT22;21661;50.794;-1.066;2023-02-02T00:01:55;8.50;99.90
35559;DHT22;21661;50.794;-1.066;2023-02-02T00:04:23;8.50;99.90
35559;DHT22;21661;50.794;-1.066;2023-02-02T00:06:50;8.50;99.90
35559;DHT22;21661;50.794;-1.066;2023-02-02T00:09:18;8.50;99.90
35559;DHT22;21661;50.794;-1.066;2023-02-02T00:11:45;8.50;99.90
35559;DHT22;21661;50.794;-1.066;2023-02-02T00:14:11;8.50;99.90
35559;DHT22;21661;50.794;-1.066;2023-02-02T00:16:47;8.60;99.90
35559;DHT22;21661;50.794;-1.066;2023-02-02T00:19:16;8.50;99.90
35559;DHT22;21661;50.794;-1.066;2023-02-02T00:21:42;8.50;99.90
35559;DHT22;21661;50.794;-1.066;2023-02-02T00:24:10;8.50;99.90
35559;DHT22;21661;50.794;-1.066;2023-02-02T00:26:37;8.60;99.90
35559;DHT22;21661;50.794;-1.066;2023-02-02T00:29:04;8.60;99.90
35559;DHT22;21661;50.794;-1.066;2023-02-02T00:31:30;8.60;99.90
35559;DHT22;21661;50.794;-1.066;2023-02-02T00:33:55;8.60;99.90
35559;DHT22;21661;50.794;-1.066;2023-02-02T00:36:21;8.60;99.90
35559;DHT22;21661;50.794;-1.066;2023-02-02T00:38:48;8.60;99.90
35559;DHT22;21661;50.794;-1.066;2023-02-02T00:41:14;8.70;99.90
35559;DHT22;21661;50.794;-1.066;2023-02-02T00:43:40;8.50;99.90
35559;DHT22;21661;50.794;-1.066;2023-02-02T00:46:11;8.50;99.90
35559;DHT22;21661;50.794;-1.066;2023-02-02T00:48:38;8.50;99.90
35559;DHT22;21661;50.794;-1.066;2023-02-02T00:51:03;8.50;99.90
35559;DHT22;21661;50.794;-1.066;2023-02-02T00:53:29;8.50;99.90
35559;DHT22;21661;50.794;-1.066;2023-02-02T00:55:54;8.50;99.90
35559;DHT22;21661;50.794;-1.066;2023-02-02T00:58:20;8.50;99.90
35559;DHT22;21661;50.794;-1.066;2023-02-02T01:00:45;8.60;99.90
35559;DHT22;21661;50.794;-1.066;2023-02-02T01:03:11;8.50;99.90
35559;DHT22;21661;50.794;-1.066;2023-02-02T01:05:37;8.50;99.90
35559;DHT22;21661;50.794;-1.066;2023-02-02T01:08:04;8.50;99.90
35559;DHT22;21661;50.794;-1.066;2023-02-02T01:10:30;8.50;99.90
35559;DHT22;21661;50.794;-1.066;2023-02-02T01:12:55;8.50;99.90
35559;DHT22;21661;50.794;-1.066;2023-02-02T01:15:21;8.50;99.90
35559;DHT22;21661;50.794;-1.066;2023-02-02T01:17:46;8.50;99.90
35559;DHT22;21661;50.794;-1.066;2023-02-02T01:20:18;8.50;99.90
35559;DHT22;21661;50.794;-1.066;2023-02-02T01:22:44;8.50;99.90
35559;DHT22;21661;50.794;-1.066;2023-02-02T01:25:10;8.50;99.90
35559;DHT22;21661;50.794;-1.066;2023-02-02T01:27:35;8.60;99.90
35559;DHT22;21661;50.794;-1.066;2023-02-02T01:30:01;8.60;99.90
35559;DHT22;21661;50.794;-1.066;2023-02-02T01:32:26;8.60;99.90
35559;DHT22;21661;50.794;-1.066;2023-02-02T01:34:52;8.60;99.90
35559;DHT22;21661;50.794;-1.066;2023-02-02T01:37:18;8.60;99.90
35559;DHT22;21661;50.794;-1.066;2023-02-02T01:39:43;8.50;99.90
35559;DHT22;21661;50.794;-1.066;2023-02-02T01:42:14;8.60;99.90
35559;DHT22;21661;50.794;-1.066;2023-02-02T01:47:27;8.60;99.90
35559;DHT22;21661;50.794;-1.066;2023-02-02T01:49:54;8.70;99.90
35559;DHT22;21661;50.794;-1.066;2023-02-02T01:52:22;8.80;99.90
35559;DHT22;21661;50.794;-1.066;2023-02-02T01:54:51;8.70;99.90
35559;DHT22;21661;50.794;-1.066;2023-02-02T01:57:32;8.70;99.90
35559;DHT22;21661;50.794;-1.066;2023-02-02T02:00:02;8.70;99.90
35559;DHT22;21661;50.794;-1.066;2023-02-02T02:02:30;8.70;99.90
35559;DHT22;21661;50.794;-1.066;2023-02-02T02:04:56;8.70;99.90
35559;DHT22;21661;50.794;-1.066;2023-02-02T02:07:22;8.70;99.90
35559;DHT22;21661;50.794;-1.066;2023-02-02T02:09:48;8.80;99.90
35559;DHT22;21661;50.794;-1.066;2023-02-02T02:12:14;8.70;99.90
35559;DHT22;21661;50.794;-1.066;2023-02-02T02:14:42;8.70;99.90
35559;DHT22;21661;50.794;-1.066;2023-02-02T02:23:43;8.80;99.90
35559;DHT22;21661;50.794;-1.066;2023-02-02T02:26:59;8.80;99.90
35559;DHT22;21661;50.794;-1.066;2023-02-02T02:32:32;8.80;99.90
35559;DHT22;21661;50.794;-1.066;2023-02-02T02:35:25;8.80;99.90
35559;DHT22;21661;50.794;-1.066;2023-02-02T02:38:02;8.80;99.90
35559;DHT22;21661;50.794;-1.066;2023-02-02T02:40:37;8.80;99.90
35559;DHT22;21661;50.794;-1.066;2023-02-02T02:43:25;8.80;99.90
35559;DHT22;21661;50.794;-1.066;2023-02-02T02:45:51;8.80;99.90
35559;DHT22;21661;50.794;-1.066;2023-02-02T02:48:17;8.80;99.90
35559;DHT22;21661;50.794;-1.066;2023-02-02T02:50:43;8.80;99.90
35559;DHT22;21661;50.794;-1.066;2023-02-02T02:53:13;8.80;99.90
35559;DHT22;21661;50.794;-1.066;2023-02-02T02:55:53;8.80;99.90
35559;DHT22;21661;50.794;-1.066;2023-02-02T02:58:50;8.80;99.90
35559;DHT22;21661;50.794;-1.066;2023-02-02T03:01:28;8.80;99.90
35559;DHT22;21661;50.794;-1.066;2023-02-02T03:04:03;8.80;99.90
35559;DHT22;21661;50.794;-1.066;2023-02-02T03:09:09;8.80;99.90
35559;DHT22;21661;50.794;-1.066;2023-02-02T03:11:36;8.80;99.90
35559;DHT22;21661;50.794;-1.066;2023-02-02T03:14:02;8.80;99.90
35559;DHT22;21661;50.794;-1.066;2023-02-02T03:16:29;8.70;99.90
35559;DHT22;21661;50.794;-1.066;2023-02-02T03:18:56;8.70;99.90
35559;DHT22;21661;50.794;-1.066;2023-02-02T03:21:22;8.70;99.90
35559;DHT22;21661;50.794;-1.066;2023-02-02T03:23:47;8.70;99.90
35559;DHT22;21661;50.794;-1.066;2023-02-02T03:26:13;8.70;99.90
35559;DHT22;21661;50.794;-1.066;2023-02-02T03:28:39;8.70;99.90
35559;DHT22;21661;50.794;-1.066;2023-02-02T03:31:05;8.70;99.90
35559;DHT22;21661;50.794;-1.066;2023-02-02T03:33:34;8.70;99.90
35559;DHT22;21661;50.794;-1.066;2023-02-02T03:36:01;8.70;99.90
35559;DHT22;21661;50.794;-1.066;2023-02-02T03:38:26;8.70;99.90
35559;DHT22;21661;50.794;-1.066;2023-02-02T03:40:52;8.70;99.90
35559;DHT22;21661;50.794;-1.066;2023-02-02T03:43:21;8.70;99.90
35559;DHT22;21661;50.794;-1.066;2023-02-02T03:45:47;8.70;99.90
35559;DHT22;21661;50.794;-1.066;2023-02-02T03:48:13;8.60;99.90
35559;DHT22;21661;50.794;-1.066;2023-02-02T03:50:38;8.60;99.90
35559;DHT22;21661;50.794;-1.066;2023-02-02T03:53:04;8.60;99.90
35559;DHT22;21661;50.794;-1.066;2023-02-02T03:55:30;8.60;99.90
35559;DHT22;21661;50.794;-1.066;2023-02-02T03:57:56;8.60;99.90
35559;DHT22;21661;50.794;-1.066;2023-02-02T04:00:21;8.60;99.90
35559;DHT22;21661;50.794;-1.066;2023-02-02T04:02:47;8.60;99.90
35559;DHT22;21661;50.794;-1.066;2023-02-02T04:05:12;8.60;99.90
35559;DHT22;21661;50.794;-1.066;2023-02-02T04:07:38;8.70;99.90
35559;DHT22;21661;50.794;-1.066;2023-02-02T04:10:04;8.60;99.90
35559;DHT22;21661;50.794;-1.066;2023-02-02T04:12:30;8.70;99.90
35559;DHT22;21661;50.794;-1.066;2023-02-02T04:14:55;8.70;99.90
35559;DHT22;21661;50.794;-1.066;2023-02-02T04:17:21;8.70;99.90
35559;DHT22;21661;50.794;-1.066;2023-02-02T04:19:46;8.70;99.90
35559;DHT22;21661;50.794;-1.066;2023-02-02T04:22:12;8.60;99.90
35559;DHT22;21661;50.794;-1.066;2023-02-02T04:24:37;8.70;99.90
35559;DHT22;21661;50.794;-1.066;2023-02-02T04:27:03;8.60;99.90
35559;DHT22;21661;50.794;-1.066;2023-02-02T04:29:29;8.70;99.90
35559;DHT22;21661;50.794;-1.066;2023-02-02T04:31:54;8.80;99.90
35559;DHT22;21661;50.794;-1.066;2023-02-02T04:34:20;8.70;99.90
35559;DHT22;21661;50.794;-1.066;2023-02-02T04:36:45;8.80;99.90
35559;DHT22;21661;50.794;-1.066;2023-02-02T04:39:12;8.80;99.90
35559;DHT22;21661;50.794;-1.066;2023-02-02T04:41:37;8.70;99.90
35559;DHT22;21661;50.794;-1.066;2023-02-02T04:44:03;8.80;99.90
35559;DHT22;21661;50.794;-1.066;2023-02-02T04:46:31;8.80;99.90
35559;DHT22;21661;50.794;-1.066;2023-02-02T04:48:56;8.80;99.90
35559;DHT22;21661;50.794;-1.066;2023-02-02T04:51:22;8.80;99.90
35559;DHT22;21661;50.794;-1.066;2023-02-02T04:53:48;8.80;99.90
35559;DHT22;21661;50.794;-1.066;2023-02-02T04:56:15;8.80;99.90
35559;DHT22;21661;50.794;-1.066;2023-02-02T04:58:42;8.80;99.90
35559;DHT22;21661;50.794;-1.066;2023-02-02T05:01:13;8.90;99.90
35559;DHT22;21661;50.794;-1.066;2023-02-02T05:03:40;8.80;99.90
35559;DHT22;21661;50.794;-1.066;2023-02-02T05:06:06;8.80;99.90
35559;DHT22;21661;50.794;-1.066;2023-02-02T05:08:33;8.80;99.90
35559;DHT22;21661;50.794;-1.066;2023-02-02T05:10:59;8.80;99.90
35559;DHT22;21661;50.794;-1.066;2023-02-02T05:13:24;8.70;99.90
35559;DHT22;21661;50.794;-1.066;2023-02-02T05:15:50;8.70;99.90
35559;DHT22;21661;50.794;-1.066;2023-02-02T05:18:16;8.80;99.90
35559;DHT22;21661;50.794;-1.066;2023-02-02T05:20:41;8.70;99.90
35559;DHT22;21661;50.794;-1.066;2023-02-02T05:23:07;8.70;99.90
35559;DHT22;21661;50.794;-1.066;2023-02-02T05:25:32;8.70;99.90
35559;DHT22;21661;50.794;-1.066;2023-02-02T05:27:58;8.70;99.90
35559;DHT22;21661;50.794;-1.066;2023-02-02T05:30:24;8.70;99.90
35559;DHT22;21661;50.794;-1.066;2023-02-02T05:32:49;8.70;99.90
35559;DHT22;21661;50.794;-1.066;2023-02-02T05:35:15;8.60;99.90
35559;DHT22;21661;50.794;-1.066;2023-02-02T05:37:44;8.60;99.90
35559;DHT22;21661;50.794;-1.066;2023-02-02T05:40:09;8.60;99.90
35559;DHT22;21661;50.794;-1.066;2023-02-02T05:42:35;8.60;99.90
35559;DHT22;21661;50.794;-1.066;2023-02-02T05:45:01;8.60;99.90
35559;DHT22;21661;50.794;-1.066;2023-02-02T05:47:27;8.60;99.90
35559;DHT22;21661;50.794;-1.066;2023-02-02T05:49:52;8.60;99.90
35559;DHT22;21661;50.794;-1.066;2023-02-02T05:52:20;8.60;99.90
35559;DHT22;21661;50.794;-1.066;2023-02-02T05:54:46;8.60;99.90
35559;DHT22;21661;50.794;-1.066;2023-02-02T05:57:12;8.60;99.90
35559;DHT22;21661;50.794;-1.066;2023-02-02T05:59:37;8.60;99.90
35559;DHT22;21661;50.794;-1.066;2023-02-02T06:02:03;8.60;99.90
35559;DHT22;21661;50.794;-1.066;2023-02-02T06:04:28;8.50;99.90
35559;DHT22;21661;50.794;-1.066;2023-02-02T06:06:54;8.50;99.90
35559;DHT22;21661;50.794;-1.066;2023-02-02T06:09:20;8.60;99.90
35559;DHT22;21661;50.794;-1.066;2023-02-02T06:11:47;8.60;99.90
35559;DHT22;21661;50.794;-1.066;2023-02-02T06:14:13;8.60;99.90
35559;DHT22;21661;50.794;-1.066;2023-02-02T06:16:38;8.60;99.90
35559;DHT22;21661;50.794;-1.066;2023-02-02T06:19:04;8.60;99.90
35559;DHT22;21661;50.794;-1.066;2023-02-02T06:21:30;8.60;99.90
35559;DHT22;21661;50.794;-1.066;2023-02-02T06:23:56;8.70;99.90
35559;DHT22;21661;50.794;-1.066;2023-02-02T06:26:22;8.60;99.90
35559;DHT22;21661;50.794;-1.066;2023-02-02T06:28:50;8.60;99.90
35559;DHT22;21661;50.794;-1.066;2023-02-02T06:31:17;8.50;99.90
35559;DHT22;21661;50.794;-1.066;2023-02-02T06:33:47;8.50;99.90
35559;DHT22;21661;50.794;-1.066;2023-02-02T06:36:13;8.60;99.90
35559;DHT22;21661;50.794;-1.066;2023-02-02T06:38:38;8.60;99.90
35559;DHT22;21661;50.794;-1.066;2023-02-02T06:41:04;8.50;99.90
35559;DHT22;21661;50.794;-1.066;2023-02-02T06:43:31;8.60;99.90
35559;DHT22;21661;50.794;-1.066;2023-02-02T06:45:57;8.60;99.90
35559;DHT22;21661;50.794;-1.066;2023-02-02T06:48:23;8.60;99.90
35559;DHT22;21661;50.794;-1.066;2023-02-02T06:50:49;8.60;99.90
35559;DHT22;21661;50.794;-1.066;2023-02-02T06:53:14;8.50;99.90
35559;DHT22;21661;50.794;-1.066;2023-02-02T06:55:55;8.60;99.90
35559;DHT22;21661;50.794;-1.066;2023-02-02T06:58:21;8.60;99.90
35559;DHT22;21661;50.794;-1.066;2023-02-02T07:00:46;8.60;99.90
35559;DHT22;21661;50.794;-1.066;2023-02-02T07:03:13;8.60;99.90
35559;DHT22;21661;50.794;-1.066;2023-02-02T07:05:39;8.50;99.90
35559;DHT22;21661;50.794;-1.066;2023-02-02T07:08:04;8.50;99.90
35559;DHT22;21661;50.794;-1.066;2023-02-02T07:10:30;8.50;99.90
35559;DHT22;21661;50.794;-1.066;2023-02-02T07:12:55;8.60;99.90
35559;DHT22;21661;50.794;-1.066;2023-02-02T07:15:21;8.60;99.90
35559;DHT22;21661;50.794;-1.066;2023-02-02T07:17:46;8.60;99.90
35559;DHT22;21661;50.794;-1.066;2023-02-02T07:20:12;8.60;99.90
35559;DHT22;21661;50.794;-1.066;2023-02-02T07:22:38;8.50;99.90
35559;DHT22;21661;50.794;-1.066;2023-02-02T07:25:05;8.50;99.90
35559;DHT22;21661;50.794;-1.066;2023-02-02T07:27:31;8.50;99.90
35559;DHT22;21661;50.794;-1.066;2023-02-02T07:29:57;8.50;99.90
35559;DHT22;21661;50.794;-1.066;2023-02-02T07:32:23;8.50;99.90
35559;DHT22;21661;50.794;-1.066;2023-02-02T07:34:48;8.50;99.90
35559;DHT22;21661;50.794;-1.066;2023-02-02T07:37:15;8.50;99.90
35559;DHT22;21661;50.794;-1.066;2023-02-02T07:39:41;8.50;99.90
35559;DHT22;21661;50.794;-1.066;2023-02-02T07:42:10;8.60;99.90
35559;DHT22;21661;50.794;-1.066;2023-02-02T07:44:36;8.60;99.90
35559;DHT22;21661;50.794;-1.066;2023-02-02T07:47:02;8.60;99.90
35559;DHT22;21661;50.794;-1.066;2023-02-02T07:49:27;8.60;99.90
35559;DHT22;21661;50.794;-1.066;2023-02-02T07:51:53;8.60;99.90
35559;DHT22;21661;50.794;-1.066;2023-02-02T07:54:19;8.60;99.90
35559;DHT22;21661;50.794;-1.066;2023-02-02T07:56:45;8.60;99.90
35559;DHT22;21661;50.794;-1.066;2023-02-02T07:59:10;8.60;99.90
35559;DHT22;21661;50.794;-1.066;2023-02-02T08:01:37;8.60;99.90
35559;DHT22;21661;50.794;-1.066;2023-02-02T08:04:03;8.60;99.90
35559;DHT22;21661;50.794;-1.066;2023-02-02T08:06:36;8.60;99.90
35559;DHT22;21661;50.794;-1.066;2023-02-02T08:09:04;8.60;99.90
35559;DHT22;21661;50.794;-1.066;2023-02-02T08:11:32;8.60;99.90
35559;DHT22;21661;50.794;-1.066;2023-02-02T08:13:59;8.60;99.90
35559;DHT22;21661;50.794;-1.066;2023-02-02T08:16:28;8.60;99.90
35559;DHT22;21661;50.794;-1.066;2023-02-02T08:18:55;8.60;99.90
35559;DHT22;21661;50.794;-1.066;2023-02-02T08:21:21;8.60;99.90
35559;DHT22;21661;50.794;-1.066;2023-02-02T08:23:47;8.60;99.90
35559;DHT22;21661;50.794;-1.066;2023-02-02T08:26:20;8.60;99.90
35559;DHT22;21661;50.794;-1.066;2023-02-02T08:28:50;8.60;99.90
35559;DHT22;21661;50.794;-1.066;2023-02-02T08:33:47;8.60;99.90
35559;DHT22;21661;50.794;-1.066;2023-02-02T08:36:17;8.60;99.90
35559;DHT22;21661;50.794;-1.066;2023-02-02T08:38:43;8.60;99.90
35559;DHT22;21661;50.794;-1.066;2023-02-02T08:41:12;8.70;99.90
35559;DHT22;21661;50.794;-1.066;2023-02-02T08:43:39;8.70;99.90
35559;DHT22;21661;50.794;-1.066;2023-02-02T08:46:07;8.80;99.90
35559;DHT22;21661;50.794;-1.066;2023-02-02T08:48:34;8.80;99.90
35559;DHT22;21661;50.794;-1.066;2023-02-02T08:51:00;8.80;99.90
35559;DHT22;21661;50.794;-1.066;2023-02-02T08:53:26;8.90;99.90
35559;DHT22;21661;50.794;-1.066;2023-02-02T08:56:06;8.90;99.90
35559;DHT22;21661;50.794;-1.066;2023-02-02T08:58:32;9.00;99.90
35559;DHT22;21661;50.794;-1.066;2023-02-02T09:01:12;9.10;99.90
35559;DHT22;21661;50.794;-1.066;2023-02-02T09:03:38;9.20;99.90
35559;DHT22;21661;50.794;-1.066;2023-02-02T09:06:09;9.30;99.90
35559;DHT22;21661;50.794;-1.066;2023-02-02T09:08:35;9.40;99.90
35559;DHT22;21661;50.794;-1.066;2023-02-02T09:11:14;9.40;99.90
35559;DHT22;21661;50.794;-1.066;2023-02-02T09:13:42;9.40;99.90
35559;DHT22;21661;50.794;-1.066;2023-02-02T09:16:10;9.40;99.90
35559;DHT22;21661;50.794;-1.066;2023-02-02T09:18:36;9.40;99.90
35559;DHT22;21661;50.794;-1.066;2023-02-02T09:21:04;9.40;99.90
35559;DHT22;21661;50.794;-1.066;2023-02-02T09:23:32;9.40;99.90
35559;DHT22;21661;50.794;-1.066;2023-02-02T09:26:23;9.50;99.90
35559;DHT22;21661;50.794;-1.066;2023-02-02T09:28:57;9.50;99.90
35559;DHT22;21661;50.794;-1.066;2023-02-02T09:31:23;9.60;99.90
35559;DHT22;21661;50.794;-1.066;2023-02-02T09:33:49;9.60;99.90
35559;DHT22;21661;50.794;-1.066;2023-02-02T09:36:20;9.60;99.90
35559;DHT22;21661;50.794;-1.066;2023-02-02T09:38:46;9.50;99.90
35559;DHT22;21661;50.794;-1.066;2023-02-02T09:49:23;9.70;99.90
35559;DHT22;21661;50.794;-1.066;2023-02-02T09:51:58;9.70;99.90
35559;DHT22;21661;50.794;-1.066;2023-02-02T09:54:42;9.70;99.90
35559;DHT22;21661;50.794;-1.066;2023-02-02T09:57:18;9.80;99.90
35559;DHT22;21661;50.794;-1.066;2023-02-02T09:59:48;9.90;99.90
35559;DHT22;21661;50.794;-1.066;2023-02-02T10:02:39;10.00;99.90
35559;DHT22;21661;50.794;-1.066;2023-02-02T10:05:20;10.00;99.90
35559;DHT22;21661;50.794;-1.066;2023-02-02T10:07:50;10.10;99.90
35559;DHT22;21661;50.794;-1.066;2023-02-02T10:10:21;10.20;99.90
35559;DHT22;21661;50.794;-1.066;2023-02-02T10:13:08;10.30;99.90
35559;DHT22;21661;50.794;-1.066;2023-02-02T10:15:39;10.30;99.90
35559;DHT22;21661;50.794;-1.066;2023-02-02T10:20:58;10.50;99.90
35559;DHT22;21661;50.794;-1.066;2023-02-02T10:23:40;10.50;99.90
35559;DHT22;21661;50.794;-1.066;2023-02-02T10:45:02;10.80;99.90
35559;DHT22;21661;50.794;-1.066;2023-02-02T10:47:33;10.80;99.90
35559;DHT22;21661;50.794;-1.066;2023-02-02T10:50:19;10.80;99.90
35559;DHT22;21661;50.794;-1.066;2023-02-02T10:52:54;10.80;99.90
35559;DHT22;21661;50.794;-1.066;2023-02-02T10:56:01;10.80;99.90
35559;DHT22;21661;50.794;-1.066;2023-02-02T10:58:55;10.90;99.90
35559;DHT22;21661;50.794;-1.066;2023-02-02T11:01:22;10.80;99.90
35559;DHT22;21661;50.794;-1.066;2023-02-02T11:03:48;10.90;99.90
35559;DHT22;21661;50.794;-1.066;2023-02-02T11:06:34;10.90;99.90
35559;DHT22;21661;50.794;-1.066;2023-02-02T11:09:21;10.90;99.90
35559;DHT22;21661;50.794;-1.066;2023-02-02T11:11:54;10.90;99.90
35559;DHT22;21661;50.794;-1.066;2023-02-02T11:14:36;10.90;99.90
35559;DHT22;21661;50.794;-1.066;2023-02-02T11:17:05;10.90;99.90
35559;DHT22;21661;50.794;-1.066;2023-02-02T11:19:33;11.00;99.90
35559;DHT22;21661;50.794;-1.066;2023-02-02T11:22:03;11.00;99.90
35559;DHT22;21661;50.794;-1.066;2023-02-02T11:24:46;11.00;99.90
35559;DHT22;21661;50.794;-1.066;2023-02-02T11:27:17;11.10;99.90
35559;DHT22;21661;50.794;-1.066;2023-02-02T11:29:54;11.10;99.90
35559;DHT22;21661;50.794;-1.066;2023-02-02T11:32:28;11.20;99.90
35559;DHT22;21661;50.794;-1.066;2023-02-02T11:37:26;11.30;99.90
35559;DHT22;21661;50.794;-1.066;2023-02-02T11:39:52;11.40;99.90
35559;DHT22;21661;50.794;-1.066;2023-02-02T11:42:22;11.40;99.90
35559;DHT22;21661;50.794;-1.066;2023-02-02T11:44:49;11.40;99.90
35559;DHT22;21661;50.794;-1.066;2023-02-02T11:47:28;11.40;99.90
35559;DHT22;21661;50.794;-1.066;2023-02-02T11:49:56;11.50;99.90
35559;DHT22;21661;50.794;-1.066;2023-02-02T11:52:24;11.40;99.90
35559;DHT22;21661;50.794;-1.066;2023-02-02T11:54:53;11.50;99.90
35559;DHT22;21661;50.794;-1.066;2023-02-02T11:57:23;11.50;99.90
35559;DHT22;21661;50.794;-1.066;2023-02-02T12:00:04;11.50;99.90
35559;DHT22;21661;50.794;-1.066;2023-02-02T12:02:31;11.50;99.90
35559;DHT22;21661;50.794;-1.066;2023-02-02T12:07:34;11.40;99.90
35559;DHT22;21661;50.794;-1.066;2023-02-02T12:10:19;11.40;99.90
35559;DHT22;21661;50.794;-1.066;2023-02-02T12:13:00;11.40;99.90
35559;DHT22;21661;50.794;-1.066;2023-02-02T12:21:08;11.30;99.90
35559;DHT22;21661;50.794;-1.066;2023-02-02T12:23:53;11.30;99.90
35559;DHT22;21661;50.794;-1.066;2023-02-02T12:26:32;11.20;99.90
35559;DHT22;21661;50.794;-1.066;2023-02-02T12:29:34;11.10;99.90
35559;DHT22;21661;50.794;-1.066;2023-02-02T12:32:26;11.00;99.90
35559;DHT22;21661;50.794;-1.066;2023-02-02T12:35:23;11.00;99.90
35559;DHT22;21661;50.794;-1.066;2023-02-02T12:38:29;10.90;99.90
35559;DHT22;21661;50.794;-1.066;2023-02-02T12:57:48;10.90;99.90
35559;DHT22;21661;50.794;-1.066;2023-02-02T13:08:18;10.80;99.90
35559;DHT22;21661;50.794;-1.066;2023-02-02T13:10:50;10.70;99.90
35559;DHT22;21661;50.794;-1.066;2023-02-02T13:15:47;10.80;99.90
35559;DHT22;21661;50.794;-1.066;2023-02-02T13:18:19;10.80;99.90
35559;DHT22;21661;50.794;-1.066;2023-02-02T13:20:54;10.80;99.90
35559;DHT22;21661;50.794;-1.066;2023-02-02T13:23:26;10.80;99.90
35559;DHT22;21661;50.794;-1.066;2023-02-02T13:26:00;10.90;99.90
35559;DHT22;21661;50.794;-1.066;2023-02-02T13:31:54;11.10;99.90
35559;DHT22;21661;50.794;-1.066;2023-02-02T13:34:36;11.10;99.90
35559;DHT22;21661;50.794;-1.066;2023-02-02T13:37:19;11.10;99.90
35559;DHT22;21661;50.794;-1.066;2023-02-02T13:39:55;11.10;99.90
35559;DHT22;21661;50.794;-1.066;2023-02-02T13:48:27;11.00;99.90
35559;DHT22;21661;50.794;-1.066;2023-02-02T13:51:08;11.00;99.90
35559;DHT22;21661;50.794;-1.066;2023-02-02T14:08:00;10.80;99.90
35559;DHT22;21661;50.794;-1.066;2023-02-02T14:10:36;10.80;99.90
35559;DHT22;21661;50.794;-1.066;2023-02-02T14:13:07;10.90;99.90
35559;DHT22;21661;50.794;-1.066;2023-02-02T14:15:54;10.90;99.90
35559;DHT22;21661;50.794;-1.066;2023-02-02T14:26:48;11.00;99.90
35559;DHT22;21661;50.794;-1.066;2023-02-02T14:34:59;11.00;99.90
35559;DHT22;21661;50.794;-1.066;2023-02-02T14:45:39;11.20;99.90
35559;DHT22;21661;50.794;-1.066;2023-02-02T14:55:53;11.30;99.90
35559;DHT22;21661;50.794;-1.066;2023-02-02T14:58:33;11.30;99.90
35559;DHT22;21661;50.794;-1.066;2023-02-02T15:14:31;11.00;99.90
35559;DHT22;21661;50.794;-1.066;2023-02-02T15:17:11;11.00;99.90
35559;DHT22;21661;50.794;-1.066;2023-02-02T15:19:44;11.00;99.90
35559;DHT22;21661;50.794;-1.066;2023-02-02T15:22:35;11.00;99.90
35559;DHT22;21661;50.794;-1.066;2023-02-02T15:25:22;11.00;99.90
35559;DHT22;21661;50.794;-1.066;2023-02-02T15:28:16;11.00;99.90
35559;DHT22;21661;50.794;-1.066;2023-02-02T15:30:46;11.00;99.90
35559;DHT22;21661;50.794;-1.066;2023-02-02T15:33:31;11.00;99.90
35559;DHT22;21661;50.794;-1.066;2023-02-02T15:36:02;11.00;99.90
35559;DHT22;21661;50.794;-1.066;2023-02-02T15:38:38;11.00;99.90
35559;DHT22;21661;50.794;-1.066;2023-02-02T15:43:40;11.00;99.90
35559;DHT22;21661;50.794;-1.066;2023-02-02T15:46:12;11.00;99.90
35559;DHT22;21661;50.794;-1.066;2023-02-02T15:48:38;11.00;99.90
35559;DHT22;21661;50.794;-1.066;2023-02-02T15:51:06;11.00;99.90
35559;DHT22;21661;50.794;-1.066;2023-02-02T15:58:52;10.80;99.90
35559;DHT22;21661;50.794;-1.066;2023-02-02T16:01:21;10.90;99.90
35559;DHT22;21661;50.794;-1.066;2023-02-02T16:06:34;10.90;99.90
35559;DHT22;21661;50.794;-1.066;2023-02-02T16:09:03;10.80;99.90
35559;DHT22;21661;50.794;-1.066;2023-02-02T16:11:30;10.80;99.90
35559;DHT22;21661;50.794;-1.066;2023-02-02T16:14:04;10.80;99.90
35559;DHT22;21661;50.794;-1.066;2023-02-02T16:16:36;10.80;99.90
35559;DHT22;21661;50.794;-1.066;2023-02-02T16:19:20;10.80;99.90
35559;DHT22;21661;50.794;-1.066;2023-02-02T16:22:15;10.80;99.90
35559;DHT22;21661;50.794;-1.066;2023-02-02T16:24:48;10.80;99.90
35559;DHT22;21661;50.794;-1.066;2023-02-02T16:27:19;10.70;99.90
35559;DHT22;21661;50.794;-1.066;2023-02-02T16:29:46;10.70;99.90
35559;DHT22;21661;50.794;-1.066;2023-02-02T16:34:57;10.70;99.90
35559;DHT22;21661;50.794;-1.066;2023-02-02T16:37:31;10.70;99.90
35559;DHT22;21661;50.794;-1.066;2023-02-02T16:40:23;10.70;99.90
35559;DHT22;21661;50.794;-1.066;2023-02-02T16:43:12;10.70;99.90
35559;DHT22;21661;50.794;-1.066;2023-02-02T16:48:29;10.70;99.90
35559;DHT22;21661;50.794;-1.066;2023-02-02T16:53:56;10.80;99.90
35559;DHT22;21661;50.794;-1.066;2023-02-02T16:56:32;10.60;99.90
35559;DHT22;21661;50.794;-1.066;2023-02-02T16:59:03;10.60;99.90
35559;DHT22;21661;50.794;-1.066;2023-02-02T17:01:41;10.70;99.90
35559;DHT22;21661;50.794;-1.066;2023-02-02T17:04:25;10.70;99.90
35559;DHT22;21661;50.794;-1.066;2023-02-02T17:06:52;10.70;99.90
35559;DHT22;21661;50.794;-1.066;2023-02-02T17:12:00;10.60;99.90
35559;DHT22;21661;50.794;-1.066;2023-02-02T17:14:31;10.60;99.90
35559;DHT22;21661;50.794;-1.066;2023-02-02T17:16:57;10.60;99.90
35559;DHT22;21661;50.794;-1.066;2023-02-02T17:19:22;10.60;99.90
35559;DHT22;21661;50.794;-1.066;2023-02-02T17:21:48;10.60;99.90
35559;DHT22;21661;50.794;-1.066;2023-02-02T17:24:15;10.60;99.90
35559;DHT22;21661;50.794;-1.066;2023-02-02T17:26:41;10.60;99.90
35559;DHT22;21661;50.794;-1.066;2023-02-02T17:29:10;10.60;99.90
35559;DHT22;21661;50.794;-1.066;2023-02-02T17:31:36;10.60;99.90
35559;DHT22;21661;50.794;-1.066;2023-02-02T17:34:04;10.50;99.90
35559;DHT22;21661;50.794;-1.066;2023-02-02T17:36:33;10.50;99.90
35559;DHT22;21661;50.794;-1.066;2023-02-02T17:38:59;10.50;99.90
35559;DHT22;21661;50.794;-1.066;2023-02-02T17:41:24;10.50;99.90
35559;DHT22;21661;50.794;-1.066;2023-02-02T17:43:50;10.40;99.90
35559;DHT22;21661;50.794;-1.066;2023-02-02T17:46:16;10.50;99.90
35559;DHT22;21661;50.794;-1.066;2023-02-02T17:48:42;10.50;99.90
35559;DHT22;21661;50.794;-1.066;2023-02-02T17:51:14;10.50;99.90
35559;DHT22;21661;50.794;-1.066;2023-02-02T17:53:40;10.50;99.90
35559;DHT22;21661;50.794;-1.066;2023-02-02T17:56:05;10.40;99.90
35559;DHT22;21661;50.794;-1.066;2023-02-02T17:58:31;10.50;99.90
35559;DHT22;21661;50.794;-1.066;2023-02-02T18:00:57;10.50;99.90
35559;DHT22;21661;50.794;-1.066;2023-02-02T18:03:28;10.50;99.90
35559;DHT22;21661;50.794;-1.066;2023-02-02T18:05:55;10.50;99.90
35559;DHT22;21661;50.794;-1.066;2023-02-02T18:08:22;10.50;99.90
35559;DHT22;21661;50.794;-1.066;2023-02-02T18:10:48;10.50;99.90
35559;DHT22;21661;50.794;-1.066;2023-02-02T18:13:16;10.50;99.90
35559;DHT22;21661;50.794;-1.066;2023-02-02T18:15:42;10.50;99.90
35559;DHT22;21661;50.794;-1.066;2023-02-02T18:18:08;10.60;99.90
35559;DHT22;21661;50.794;-1.066;2023-02-02T18:20:33;10.60;99.90
35559;DHT22;21661;50.794;-1.066;2023-02-02T18:23:00;10.50;99.90
35559;DHT22;21661;50.794;-1.066;2023-02-02T18:25:26;10.50;99.90
35559;DHT22;21661;50.794;-1.066;2023-02-02T18:27:52;10.60;99.90
35559;DHT22;21661;50.794;-1.066;2023-02-02T18:30:17;10.50;99.90
35559;DHT22;21661;50.794;-1.066;2023-02-02T18:32:43;10.50;99.90
35559;DHT22;21661;50.794;-1.066;2023-02-02T18:35:10;10.50;99.90
35559;DHT22;21661;50.794;-1.066;2023-02-02T18:37:36;10.50;99.90